createdAt,value
2019-05-23T00:00:33.051Z,13.23
2019-05-23T00:03:02.830Z,10.10
2019-05-23T00:05:35.253Z,11.80
2019-05-23T00:08:08.581Z,12.93
2019-05-23T00:10:39.824Z,13.67
2019-05-23T00:13:15.136Z,9.63
2019-05-23T00:15:47.327Z,12.47
2019-05-23T00:18:20.827Z,13.37
2019-05-23T00:20:47.879Z,11.10
2019-05-23T00:23:17.528Z,11.17
2019-05-23T00:25:46.772Z,14.90
2019-05-23T00:28:17.021Z,10.87
2019-05-23T00:31:01.846Z,9.90
2019-05-23T00:33:32.341Z,12.87
2019-05-23T00:36:02.210Z,13.40
2019-05-23T00:38:31.332Z,13.10
2019-05-23T00:41:00.261Z,13.47
2019-05-23T00:43:30.477Z,11.10
2019-05-23T00:45:59.931Z,14.63
2019-05-23T00:48:28.515Z,10.67
2019-05-23T00:50:57.352Z,13.23
2019-05-23T00:53:26.097Z,10.53
2019-05-23T00:55:54.716Z,12.60
2019-05-23T00:58:23.292Z,10.20
2019-05-23T01:00:51.924Z,8.93
2019-05-23T01:03:21.216Z,12.10
2019-05-23T01:05:49.793Z,12.70
2019-05-23T01:08:20.820Z,10.73
2019-05-23T01:10:49.767Z,13.07
2019-05-23T01:13:18.771Z,11.47
2019-05-23T01:15:47.526Z,13.60
2019-05-23T01:18:16.279Z,11.73
2019-05-23T01:21:29.603Z,12.90
2019-05-23T01:24:02.609Z,10.17
2019-05-23T01:26:31.858Z,11.47
2019-05-23T01:29:01.896Z,12.97
2019-05-23T01:31:35.033Z,10.90
2019-05-23T01:34:05.501Z,12.87
2019-05-23T01:36:35.760Z,14.47
2019-05-23T01:39:06.356Z,13.40
2019-05-23T01:41:35.065Z,13.43
2019-05-23T01:44:04.772Z,12.70
2019-05-23T01:46:33.616Z,10.73
2019-05-23T01:49:02.376Z,12.03
2019-05-23T01:51:32.468Z,13.77
2019-05-23T01:54:01.204Z,13.53
2019-05-23T01:56:30.405Z,10.40
2019-05-23T01:58:58.985Z,15.40
2019-05-23T02:01:28.158Z,14.43
2019-05-23T02:03:56.820Z,10.40
2019-05-23T02:06:25.572Z,11.27
2019-05-23T02:08:54.323Z,10.50
2019-05-23T02:11:24.002Z,12.47
2019-05-23T02:13:52.840Z,9.87
2019-05-23T02:16:21.413Z,15.53
2019-05-23T02:18:50.965Z,15.40
2019-05-23T02:21:20.449Z,14.03
2019-05-23T02:23:49.311Z,14.63
2019-05-23T02:26:19.220Z,11.87
2019-05-23T02:28:47.983Z,12.97
2019-05-23T02:31:16.587Z,13.67
2019-05-23T02:33:45.179Z,10.57
2019-05-23T02:36:14.735Z,12.67
2019-05-23T02:39:00.523Z,10.20
2019-05-23T02:41:33.538Z,14.37
2019-05-23T02:44:08.869Z,14.60
2019-05-23T02:46:51.636Z,10.53
2019-05-23T02:49:23.093Z,13.33
2019-05-23T02:52:20.348Z,13.70
2019-05-23T02:54:49.409Z,13.37
2019-05-23T02:57:19.162Z,11.40
2019-05-23T02:59:49.375Z,12.83
2019-05-23T03:02:51.328Z,12.73
2019-05-23T03:05:21.933Z,11.37
2019-05-23T03:07:50.585Z,15.23
2019-05-23T03:10:19.883Z,13.73
2019-05-23T03:12:49.444Z,10.20
2019-05-23T03:15:19.250Z,13.27
2019-05-23T03:17:51.516Z,11.97
2019-05-23T03:20:21.402Z,11.50
2019-05-23T03:23:12.081Z,17.37
2019-05-23T03:26:19.813Z,13.70
2019-05-23T03:28:48.444Z,12.83
2019-05-23T03:31:46.016Z,15.13
2019-05-23T03:34:16.347Z,15.30
2019-05-23T03:36:45.204Z,13.03
2019-05-23T03:39:13.849Z,13.37
2019-05-23T03:41:42.432Z,12.53
2019-05-23T03:44:11.672Z,11.73
2019-05-23T03:46:44.538Z,16.77
2019-05-23T03:49:14.783Z,14.60
2019-05-23T03:51:44.874Z,15.07
2019-05-23T03:54:15.276Z,14.00
2019-05-23T03:56:45.675Z,12.23
2019-05-23T03:59:15.583Z,13.57
2019-05-23T04:02:05.117Z,16.67
2019-05-23T04:04:34.671Z,13.77
2019-05-23T04:07:04.362Z,16.70
2019-05-23T04:09:33.000Z,12.57
2019-05-23T04:12:02.179Z,13.37
2019-05-23T04:14:31.105Z,13.13
2019-05-23T04:16:59.812Z,12.03
2019-05-23T04:19:28.475Z,14.27
2019-05-23T04:21:57.046Z,21.07
2019-05-23T04:24:25.985Z,13.33
2019-05-23T04:26:54.647Z,13.10
2019-05-23T04:29:24.188Z,11.87
2019-05-23T04:32:07.161Z,19.93
2019-05-23T04:34:23.373Z,17.63
2019-05-23T04:36:52.016Z,19.83
2019-05-23T04:39:23.326Z,14.43
2019-05-23T04:41:52.192Z,15.17
2019-05-23T04:44:20.843Z,15.90
2019-05-23T04:46:50.340Z,24.23
2019-05-23T04:49:20.289Z,14.50
2019-05-23T04:51:48.864Z,18.37
2019-05-23T04:54:17.804Z,16.80
2019-05-23T04:56:46.394Z,15.93
2019-05-23T04:59:15.247Z,14.73
2019-05-23T05:01:44.405Z,18.00
2019-05-23T05:04:12.986Z,16.67
2019-05-23T05:06:41.565Z,14.97
2019-05-23T05:09:13.022Z,17.37
2019-05-23T05:11:41.895Z,17.17
2019-05-23T05:14:10.500Z,19.90
2019-05-23T05:16:39.075Z,16.83
2019-05-23T05:19:07.928Z,15.93
2019-05-23T05:21:36.872Z,19.40
2019-05-23T05:24:05.464Z,18.03
2019-05-23T05:26:34.081Z,19.80
2019-05-23T05:29:03.239Z,21.17
2019-05-23T05:31:31.819Z,17.57
2019-05-23T05:34:00.406Z,23.10
2019-05-23T05:36:28.994Z,20.43
2019-05-23T05:38:57.858Z,18.17
2019-05-23T05:41:45.816Z,16.57
2019-05-23T05:44:14.405Z,19.77
2019-05-23T05:46:43.250Z,26.43
2019-05-23T05:49:12.796Z,21.93
2019-05-23T05:51:41.379Z,27.00
2019-05-23T05:54:10.126Z,22.73
2019-05-23T05:56:58.056Z,19.27
2019-05-23T05:59:26.664Z,17.63
2019-05-23T06:01:56.335Z,20.30
2019-05-23T06:04:25.479Z,23.27
2019-05-23T06:07:00.560Z,16.90
2019-05-23T06:09:31.129Z,17.13
2019-05-23T06:12:12.586Z,20.80
2019-05-23T06:14:41.239Z,17.97
2019-05-23T06:17:12.405Z,15.27
2019-05-23T06:19:41.306Z,15.40
2019-05-23T06:22:09.927Z,16.47
2019-05-23T06:24:46.631Z,15.80
2019-05-23T06:27:13.013Z,15.33
2019-05-23T06:30:01.575Z,13.63
2019-05-23T06:32:30.494Z,19.60
2019-05-23T06:37:47.093Z,15.43
2019-05-23T06:40:15.945Z,20.43
2019-05-23T06:42:44.542Z,19.70
2019-05-23T06:45:13.417Z,24.47
2019-05-23T06:47:42.174Z,21.93
2019-05-23T06:50:13.427Z,17.07
2019-05-23T06:52:42.240Z,21.83
2019-05-23T06:55:10.841Z,19.57
2019-05-23T06:57:39.418Z,17.20
2019-05-23T07:00:08.185Z,21.33
2019-05-23T07:02:37.031Z,20.97
2019-05-23T07:05:05.629Z,15.93
2019-05-23T07:07:35.929Z,15.97
2019-05-23T07:10:06.733Z,17.87
2019-05-23T07:12:35.925Z,16.10
2019-05-23T07:15:04.539Z,17.37
2019-05-23T07:17:33.161Z,17.70
2019-05-23T07:20:01.737Z,13.83
2019-05-23T07:22:30.701Z,19.92
2019-05-23T07:25:18.659Z,16.07
2019-05-23T07:27:47.437Z,16.35
2019-05-23T07:30:20.205Z,17.67
2019-05-23T07:32:48.790Z,16.10
2019-05-23T07:35:18.074Z,15.75
2019-05-23T07:37:46.649Z,17.87
2019-05-23T07:40:15.249Z,14.23
2019-05-23T07:42:43.872Z,18.90
2019-05-23T07:45:14.809Z,14.60
2019-05-23T07:47:43.405Z,16.67
2019-05-23T07:50:11.998Z,14.05
2019-05-23T07:52:40.564Z,15.13
2019-05-23T07:55:34.641Z,20.32
2019-05-23T07:58:04.295Z,15.10
2019-05-23T08:00:36.841Z,13.83
2019-05-23T08:03:05.775Z,15.18
2019-05-23T08:05:34.563Z,11.70
2019-05-23T08:08:04.110Z,20.05
2019-05-23T08:10:34.526Z,16.07
2019-05-23T08:13:03.494Z,34.10
2019-05-23T08:15:32.372Z,11.65
2019-05-23T08:18:01.031Z,19.95
2019-05-23T08:20:29.633Z,12.00
2019-05-23T08:22:58.385Z,13.65
2019-05-23T08:25:27.028Z,14.78
2019-05-23T08:27:55.906Z,14.55
2019-05-23T08:30:24.573Z,11.88
2019-05-23T08:32:53.377Z,11.97
2019-05-23T08:35:22.709Z,12.88
2019-05-23T08:37:51.386Z,13.88
2019-05-23T08:40:22.002Z,15.43
2019-05-23T08:42:51.536Z,12.00
2019-05-23T08:45:23.322Z,11.10
2019-05-23T08:47:52.230Z,11.95
2019-05-23T08:50:21.768Z,10.80
2019-05-23T08:52:50.506Z,9.55
2019-05-23T08:55:22.581Z,14.80
2019-05-23T08:57:51.915Z,12.30
2019-05-23T09:00:22.906Z,9.05
2019-05-23T09:02:53.165Z,11.70
2019-05-23T09:05:23.582Z,9.28
2019-05-23T09:08:16.165Z,9.05
2019-05-23T09:10:42.370Z,8.83
2019-05-23T09:13:11.341Z,12.35
2019-05-23T09:15:40.426Z,9.43
2019-05-23T09:18:09.314Z,6.20
2019-05-23T09:20:38.185Z,16.57
2019-05-23T09:23:07.248Z,3.45
2019-05-23T09:25:36.198Z,9.98
2019-05-23T09:28:04.973Z,5.72
2019-05-23T09:30:34.453Z,5.92
2019-05-23T09:33:03.921Z,5.90
2019-05-23T09:35:33.476Z,6.10
2019-05-23T09:38:02.228Z,8.30
2019-05-23T09:40:31.132Z,5.10
2019-05-23T09:42:59.725Z,11.10
2019-05-23T09:45:28.388Z,13.08
2019-05-23T09:47:57.034Z,6.03
2019-05-23T09:50:27.445Z,5.28
2019-05-23T09:52:56.517Z,7.33
2019-05-23T09:55:25.465Z,7.15
2019-05-23T09:57:54.123Z,5.70
2019-05-23T10:00:24.020Z,4.42
2019-05-23T10:02:52.600Z,7.47
2019-05-23T10:05:40.133Z,9.55
2019-05-23T10:07:51.549Z,7.20
2019-05-23T10:10:20.203Z,4.72
2019-05-23T10:12:49.092Z,15.65
2019-05-23T10:15:49.165Z,8.53
2019-05-23T10:18:37.254Z,3.02
2019-05-23T10:21:05.945Z,6.67
2019-05-23T10:23:34.701Z,2.45
2019-05-23T10:26:03.827Z,10.53
2019-05-23T10:28:32.410Z,9.85
2019-05-23T10:31:01.351Z,11.00
2019-05-23T10:33:29.936Z,16.65
2019-05-23T10:36:18.736Z,4.12
2019-05-23T10:38:47.630Z,9.78
2019-05-23T10:41:16.204Z,3.05
2019-05-23T10:43:44.928Z,9.63
2019-05-23T10:46:13.568Z,5.37
2019-05-23T10:48:42.139Z,4.10
2019-05-23T10:51:10.741Z,5.95
2019-05-23T10:53:39.318Z,4.20
2019-05-23T10:56:27.693Z,9.48
2019-05-23T10:58:56.328Z,2.95
2019-05-23T11:01:25.853Z,3.35
2019-05-23T11:03:55.121Z,5.78
2019-05-23T11:06:23.750Z,4.00
2019-05-23T11:08:54.146Z,6.15
2019-05-23T11:11:23.121Z,7.62
2019-05-23T11:13:52.339Z,6.20
2019-05-23T11:16:21.292Z,13.28
2019-05-23T11:18:49.878Z,4.90
2019-05-23T11:21:18.472Z,9.00
2019-05-23T11:23:51.110Z,8.50
2019-05-23T11:26:19.712Z,6.03
2019-05-23T11:28:48.310Z,8.43
2019-05-23T11:31:17.242Z,4.12
2019-05-23T11:33:45.817Z,3.85
2019-05-23T11:36:14.664Z,5.55
2019-05-23T11:38:43.303Z,11.68
2019-05-23T11:41:12.190Z,5.15
2019-05-23T11:43:42.001Z,2.77
2019-05-23T11:46:21.499Z,2.70
2019-05-23T11:48:50.349Z,1.50
2019-05-23T11:51:24.152Z,6.22
2019-05-23T11:54:10.209Z,6.40
2019-05-23T11:56:39.825Z,15.05
2019-05-23T11:59:08.853Z,11.03
2019-05-23T12:02:11.557Z,7.47
2019-05-23T12:04:41.681Z,13.70
2019-05-23T12:07:17.781Z,10.30
2019-05-23T12:09:46.356Z,16.85
2019-05-23T12:12:14.929Z,4.67
2019-05-23T12:14:44.342Z,7.62
2019-05-23T12:17:14.521Z,6.97
2019-05-23T12:19:43.148Z,5.78
2019-05-23T12:22:12.309Z,7.65
2019-05-23T12:24:40.883Z,6.85
2019-05-23T12:27:28.849Z,5.22
2019-05-23T12:29:57.742Z,5.65
2019-05-23T12:32:26.316Z,3.60
2019-05-23T12:35:09.641Z,6.62
2019-05-23T12:37:25.239Z,5.62
2019-05-23T12:39:54.105Z,6.47
2019-05-23T12:42:22.682Z,11.30
2019-05-23T12:44:51.276Z,4.70
2019-05-23T12:47:30.247Z,8.83
2019-05-23T12:50:04.058Z,8.85
2019-05-23T12:52:33.365Z,9.33
2019-05-23T12:55:01.972Z,8.85
2019-05-23T12:57:30.588Z,6.55
2019-05-23T12:59:59.618Z,16.07
2019-05-23T13:02:28.912Z,7.25
2019-05-23T13:04:57.751Z,13.68
2019-05-23T13:07:45.649Z,8.93
2019-05-23T13:10:14.520Z,9.50
2019-05-23T13:12:43.164Z,11.90
2019-05-23T13:15:32.669Z,8.65
2019-05-23T13:18:01.238Z,6.50
2019-05-23T13:20:30.195Z,4.67
2019-05-23T13:22:58.865Z,9.68
2019-05-23T13:25:28.677Z,7.00
2019-05-23T13:27:58.719Z,7.97
2019-05-23T13:30:47.268Z,6.95
2019-05-23T13:33:16.135Z,8.40
2019-05-23T13:35:44.885Z,5.92
2019-05-23T13:38:13.435Z,5.65
2019-05-23T13:40:42.012Z,7.17
2019-05-23T13:43:10.590Z,6.35
2019-05-23T13:45:39.653Z,6.12
2019-05-23T13:48:08.245Z,10.05
2019-05-23T13:50:36.821Z,6.90
2019-05-23T13:53:06.650Z,7.58
2019-05-23T13:55:35.337Z,7.10
2019-05-23T13:58:03.901Z,7.80
2019-05-23T14:00:34.062Z,8.65
2019-05-23T14:03:03.023Z,6.37
2019-05-23T14:05:31.966Z,8.83
2019-05-23T14:08:11.703Z,10.20
2019-05-23T14:10:31.032Z,8.23
2019-05-23T14:12:59.607Z,6.62
2019-05-23T14:15:33.564Z,8.33
2019-05-23T14:18:02.185Z,9.40
2019-05-23T14:20:30.761Z,7.40
2019-05-23T14:23:04.241Z,9.38
2019-05-23T14:25:32.838Z,8.23
2019-05-23T14:28:08.800Z,8.18
2019-05-23T14:31:15.889Z,7.00
2019-05-23T14:34:06.008Z,9.83
2019-05-23T14:36:52.593Z,13.65
2019-05-23T14:39:33.037Z,8.68
2019-05-23T14:42:10.717Z,9.88
2019-05-23T14:44:39.315Z,6.17
2019-05-23T14:47:42.438Z,11.10
2019-05-23T14:50:26.857Z,8.25
2019-05-23T14:52:56.792Z,8.40
2019-05-23T14:55:25.385Z,8.15
2019-05-23T14:57:53.981Z,5.83
2019-05-23T15:00:24.952Z,7.15
2019-05-23T15:02:53.584Z,9.25
2019-05-23T15:05:22.320Z,7.97
2019-05-23T15:07:50.974Z,6.85
2019-05-23T15:10:20.601Z,10.68
2019-05-23T15:12:49.160Z,7.85
2019-05-23T15:15:18.201Z,8.10
2019-05-23T15:17:46.792Z,9.73
2019-05-23T15:20:15.357Z,7.78
2019-05-23T15:22:43.974Z,7.85
2019-05-23T15:25:12.540Z,8.00
2019-05-23T15:27:41.237Z,7.80
2019-05-23T15:30:09.817Z,6.35
2019-05-23T15:32:38.396Z,8.48
2019-05-23T15:35:06.981Z,6.10
2019-05-23T15:37:35.937Z,9.83
2019-05-23T15:40:04.600Z,7.42
2019-05-23T15:42:33.169Z,8.73
2019-05-23T15:45:01.803Z,9.13
2019-05-23T15:47:33.260Z,6.03
2019-05-23T15:50:07.128Z,10.35
2019-05-23T15:52:49.279Z,9.60
2019-05-23T15:55:26.641Z,8.00
2019-05-23T15:58:01.225Z,8.13
2019-05-23T16:00:45.389Z,5.10
2019-05-23T16:03:31.567Z,7.03
2019-05-23T16:06:21.601Z,6.17
2019-05-23T16:08:50.490Z,4.87
2019-05-23T16:11:19.531Z,6.47
2019-05-23T16:13:48.111Z,6.50
2019-05-23T16:16:16.688Z,8.70
2019-05-23T16:18:45.648Z,6.70
2019-05-23T16:21:14.700Z,6.83
2019-05-23T16:23:43.294Z,6.15
2019-05-23T16:26:12.008Z,5.47
2019-05-23T16:28:40.712Z,3.70
2019-05-23T16:31:09.321Z,7.62
2019-05-23T16:33:38.260Z,6.33
2019-05-23T16:36:06.890Z,5.40
2019-05-23T16:38:35.474Z,4.65
2019-05-23T16:41:04.061Z,10.82
2019-05-23T16:43:33.077Z,5.40
2019-05-23T16:46:01.714Z,5.20
2019-05-23T16:48:31.131Z,4.00
2019-05-23T16:51:00.185Z,3.93
2019-05-23T16:53:48.358Z,5.57
2019-05-23T16:56:25.094Z,3.93
2019-05-23T16:59:03.409Z,5.63
2019-05-23T17:01:57.053Z,4.47
2019-05-23T17:04:35.685Z,3.57
2019-05-23T17:07:20.294Z,4.07
2019-05-23T17:10:08.659Z,3.63
2019-05-23T17:12:43.925Z,5.40
2019-05-23T17:15:26.540Z,5.87
2019-05-23T17:18:11.007Z,4.30
2019-05-23T17:21:04.988Z,4.47
2019-05-23T17:23:55.832Z,6.03
2019-05-23T17:26:35.428Z,4.23
2019-05-23T17:29:07.737Z,2.87
2019-05-23T17:31:38.722Z,4.13
2019-05-23T17:34:07.285Z,5.23
2019-05-23T17:36:36.003Z,6.00
2019-05-23T17:39:24.579Z,4.53
2019-05-23T17:41:53.337Z,3.93
2019-05-23T17:44:22.275Z,4.17
2019-05-23T17:46:50.873Z,3.80
2019-05-23T17:49:19.497Z,3.50
2019-05-23T17:51:48.079Z,3.00
2019-05-23T17:54:16.876Z,5.67
2019-05-23T17:56:45.571Z,4.03
2019-05-23T17:59:14.189Z,2.83
2019-05-23T18:01:43.562Z,5.20
2019-05-23T18:04:12.153Z,2.17
2019-05-23T18:06:40.788Z,3.37
2019-05-23T18:09:09.624Z,2.63
2019-05-23T18:11:38.278Z,3.87
2019-05-23T18:14:07.844Z,2.60
2019-05-23T18:16:36.930Z,5.97
2019-05-23T18:19:06.525Z,3.17
2019-05-23T18:21:35.225Z,2.60
2019-05-23T18:24:04.311Z,2.40
2019-05-23T18:26:33.086Z,1.93
2019-05-23T18:29:02.045Z,2.80
2019-05-23T18:31:32.704Z,6.60
2019-05-23T18:34:01.260Z,5.90
2019-05-23T18:36:31.113Z,3.10
2019-05-23T18:38:59.706Z,2.80
2019-05-23T18:41:28.651Z,2.90
2019-05-23T18:43:57.707Z,3.43
2019-05-23T18:46:31.606Z,3.77
2019-05-23T18:49:00.353Z,3.63
2019-05-23T18:51:28.922Z,2.90
2019-05-23T18:53:57.765Z,2.87
2019-05-23T18:56:26.409Z,5.03
2019-05-23T18:58:55.225Z,5.63
2019-05-23T19:01:25.771Z,5.87
2019-05-23T19:03:55.065Z,5.40
2019-05-23T19:06:24.516Z,4.20
2019-05-23T19:08:53.151Z,4.17
2019-05-23T19:11:22.408Z,3.20
2019-05-23T19:13:51.170Z,3.67
2019-05-23T19:16:20.013Z,4.63
2019-05-23T19:18:48.873Z,5.93
2019-05-23T19:21:17.826Z,5.23
2019-05-23T19:23:46.946Z,5.93
2019-05-23T19:26:16.333Z,11.67
2019-05-23T19:28:45.537Z,6.50
2019-05-23T19:31:15.870Z,3.87
2019-05-23T19:33:45.088Z,4.77
2019-05-23T19:36:14.638Z,4.17
2019-05-23T19:38:43.431Z,11.43
2019-05-23T19:41:12.453Z,5.93
2019-05-23T19:43:41.689Z,4.20
2019-05-23T19:46:10.543Z,8.40
2019-05-23T19:48:40.813Z,5.43
2019-05-23T19:51:10.573Z,4.53
2019-05-23T19:53:39.798Z,6.07
2019-05-23T19:56:09.095Z,6.10
2019-05-23T19:58:37.854Z,6.73
2019-05-23T20:01:07.308Z,5.13
2019-05-23T20:03:36.309Z,5.00
2019-05-23T20:06:05.248Z,4.50
2019-05-23T20:08:33.825Z,7.40
2019-05-23T20:11:02.408Z,6.40
2019-05-23T20:13:30.973Z,6.47
2019-05-23T20:15:59.546Z,6.23
2019-05-23T20:18:28.215Z,7.60
2019-05-23T20:20:57.080Z,7.87
2019-05-23T20:23:25.763Z,5.17
2019-05-23T20:25:54.332Z,9.07
2019-05-23T20:28:23.372Z,6.83
2019-05-23T20:30:56.133Z,6.27
2019-05-23T20:33:24.904Z,7.43
2019-05-23T20:35:53.479Z,4.80
2019-05-23T20:38:22.929Z,6.87
2019-05-23T20:40:51.543Z,5.37
2019-05-23T20:43:20.471Z,6.90
2019-05-23T20:45:49.051Z,6.10
2019-05-23T20:48:17.752Z,6.97
2019-05-23T20:50:46.383Z,6.93
2019-05-23T20:53:15.069Z,6.77
2019-05-23T20:55:43.783Z,9.20
2019-05-23T20:58:12.481Z,8.30
2019-05-23T21:00:59.306Z,8.90
2019-05-23T21:03:29.784Z,8.33
2019-05-23T21:05:58.369Z,7.87
2019-05-23T21:08:26.976Z,8.67
2019-05-23T21:10:55.568Z,8.00
2019-05-23T21:13:24.356Z,8.97
2019-05-23T21:15:53.081Z,7.70
2019-05-23T21:18:21.729Z,8.37
2019-05-23T21:20:50.317Z,7.93
2019-05-23T21:23:19.000Z,7.50
2019-05-23T21:26:06.821Z,8.07
2019-05-23T21:28:35.957Z,9.93
2019-05-23T21:31:07.863Z,10.17
2019-05-23T21:33:36.503Z,8.97
2019-05-23T21:36:05.409Z,7.63
2019-05-23T21:38:34.053Z,7.40
2019-05-23T21:41:03.676Z,7.40
2019-05-23T21:43:32.411Z,7.33
2019-05-23T21:46:01.002Z,7.47
2019-05-23T21:48:29.565Z,7.43
2019-05-23T21:50:58.144Z,7.67
2019-05-23T21:53:26.747Z,6.63
2019-05-23T21:55:55.413Z,6.70
2019-05-23T21:58:23.986Z,10.23
2019-05-23T22:01:23.029Z,10.20
2019-05-23T22:04:06.468Z,7.70
2019-05-23T22:06:36.773Z,9.37
2019-05-23T22:09:07.293Z,7.60
2019-05-23T22:11:35.973Z,8.37
2019-05-23T22:14:04.772Z,8.53
2019-05-23T22:16:33.545Z,8.83
2019-05-23T22:19:16.274Z,11.37
2019-05-23T22:21:45.164Z,9.77
2019-05-23T22:24:14.718Z,8.23
2019-05-23T22:26:43.328Z,8.97
2019-05-23T22:29:12.172Z,10.40
2019-05-23T22:31:40.751Z,8.50
2019-05-23T22:34:19.892Z,7.97
2019-05-23T22:36:48.485Z,8.77
2019-05-23T22:39:17.734Z,10.17
2019-05-23T22:41:46.569Z,8.33
2019-05-23T22:44:15.316Z,7.37
2019-05-23T22:46:44.048Z,9.07
2019-05-23T22:49:12.643Z,7.90
2019-05-23T22:51:41.244Z,7.50
2019-05-23T22:54:09.838Z,15.13
2019-05-23T22:56:38.447Z,11.87
2019-05-23T22:59:07.092Z,10.27
2019-05-23T23:01:36.035Z,11.83
2019-05-23T23:04:04.979Z,11.50
2019-05-23T23:06:33.646Z,11.83
2019-05-23T23:09:02.209Z,10.00
2019-05-23T23:11:30.806Z,12.13
2019-05-23T23:13:59.371Z,10.00
2019-05-23T23:16:28.028Z,10.93
2019-05-23T23:18:56.684Z,10.93
2019-05-23T23:21:25.320Z,9.57
2019-05-23T23:23:54.567Z,12.63
2019-05-23T23:26:23.145Z,12.27
2019-05-23T23:28:51.756Z,16.17
2019-05-23T23:31:20.329Z,13.53
2019-05-23T23:33:48.891Z,13.87
2019-05-23T23:36:17.443Z,13.00
2019-05-23T23:38:46.019Z,13.07
2019-05-23T23:41:14.692Z,12.20
2019-05-23T23:43:58.048Z,13.17
2019-05-23T23:46:31.348Z,14.63
2019-05-23T23:49:17.873Z,14.80
2019-05-23T23:52:04.433Z,11.47
2019-05-23T23:54:50.972Z,12.53
2019-05-23T23:57:37.577Z,13.73
